Mendon - 24 Hour Table
Date & TimeSolar
Radiation
(W/m²)
Wind
Speed
(mph)
Wind
Direction
(degrees)
Air
Temperature
(°F)
Relative
Humidity
(%)
Precipitation
(inches)
2017/05/23 11:00 841 0.0 301 66.6 49 0.00
2017/05/23 10:00 676 0.1 162 63.9 52 0.00
2017/05/23 09:00 564 0.0 148 59.8 51 0.00
2017/05/23 08:00 48 0.0 143 55.1 65 0.00
2017/05/23 07:00 31 0.0 328 50.1 74 0.00
2017/05/23 06:00 12 0.0 314 44.7 95 0.00
2017/05/23 05:00 1 0.0 314 44.3 92 0.00
2017/05/23 04:00 0 0.0 314 45.2 91 0.00
2017/05/23 03:00 0 0.0 306 46.1 91 0.00
2017/05/23 02:00 0 0.0 334 47.7 88 0.00
2017/05/23 01:00 0 0.0 309 51.1 85 0.00
2017/05/23 00:00 0 0.0 310 50.2 83 0.00
2017/05/22 23:00 0 0.0 307 50.2 83 0.00
2017/05/22 22:00 0 0.0 311 52.9 79 0.00
2017/05/22 21:00 0 0.0 168 56.4 68 0.00
2017/05/22 20:00 22 0.0 174 60.1 68 0.00
2017/05/22 19:00 44 0.1 312 68.0 61 0.00
2017/05/22 18:00 41 1.4 339 70.8 34 0.00
2017/05/22 17:00 93 1.0 360 70.4 36 0.00
2017/05/22 16:00 410 1.7 172 70.5 38 0.00
2017/05/22 15:00 847 1.3 134 71.6 37 0.00
2017/05/22 14:00 886 0.3 272 70.9 40 0.00
2017/05/22 13:00 826 0.7 166 68.5 43 0.00
2017/05/22 12:00 957 0.8 167 66.3 51 0.00